Pellston, Michigan
Current Conditions -  °F | °C
As of 6:54 AM on Friday 28 Nov 2014 (Local Time) from KPLN Reporting Station
Overcast Overcast  
Wind Chill: 16°   Ceiling: 3400
Heat Index: 16°   Visibility: 10mi
Dew Point: 12°   Wind: 3mph
Humidity: 84%   Direction: 150°SSE
Pressure: 30.24"   Gusts: NA
Location:  45.55°N, 84.78°W
Report Text: KPLN 281154Z AUTO 15003KT 10SM OVC034 M09/M11 A3024 RMK AO2 SLP256 60000 T10891111 11078 21094 58011
Loading
Personal Weather Stations






























Interactive Weather Map New forecast layout! Learn more

10-Day Weather Forecast

Advertisements
Track Severe Weather on mobile